Transformer Ol — 3EZY5 — position and weather

sailwx.info

Track history (hours):
 
Tides and Currents Weather Stations Pressure Air Temp Water Temp Dewpoint Dewpoint Depression Visibility Wind Speed Wind Dir Waves Ship Positions

Transformer Ol

Last reported at 2016-Dec-08 00:23 UTC. Time now 2016-Dec-11 11:55 UTC.
Position N 01°55' E 102°19'.

Length 169 m; draft 9.9 m.

Type: Cargo ship. MMSI: 372789000.

Date/timePositionNaut miles runAvg speedWind from/ knotsBaromVisibWave heightAir tempDewpointWater temp
2016-Dec-08 00:23N 01°55' E 102°19'1113.4
2016-Dec-07 23:33N 01°50' E 102°29'1313.1
2016-Dec-07 22:33N 01°45' E 102°41'7512.0
2016-Dec-07 16:18N 01°10' E 103°48'7 9.1
2016-Dec-07 15:33N 01°14' E 103°54'2 1.6
2016-Dec-07 14:32N 01°15' E 103°53'0 0.1
2016-Dec-07 13:23N 01°15' E 103°53'0 0.0
2016-Dec-07 12:29N 01°15' E 103°53'0 0.1
2016-Dec-07 11:23N 01°15' E 103°53'0 0.1
2016-Dec-07 10:29N 01°15' E 103°53'0 0.0
2016-Dec-07 08:29N 01°15' E 103°53'0 0.1
2016-Dec-07 07:29N 01°15' E 103°53'0 0.1
2016-Dec-07 06:29N 01°15' E 103°53'0 0.0
2016-Dec-07 05:32N 01°15' E 103°53'0 0.0
2016-Dec-07 04:29N 01°15' E 103°53'0 0.1
2016-Dec-07 03:33N 01°15' E 103°53'3 2.8
2016-Dec-07 02:33N 01°14' E 103°55'4 4.3
2016-Dec-07 01:33N 01°15' E 103°60'  
2016-Nov-29 20:32N 31°16' E 121°52'1312.8
2016-Nov-29 19:33N 31°21' E 121°39'9 9.1
2016-Nov-29 18:34N 31°26' E 121°29'1010.1
2016-Nov-29 17:33N 31°32' E 121°20'10 9.9
2016-Nov-29 16:34N 31°40' E 121°12'4 3.5
2016-Nov-29 15:25N 31°42' E 121°08'0 0.0
2016-Nov-29 13:31N 31°42' E 121°08'0 0.0
2016-Nov-29 12:31N 31°42' E 121°08'0 0.0
2016-Nov-29 11:31N 31°42' E 121°08'0 0.0
2016-Nov-29 10:25N 31°42' E 121°08'0 0.0
2016-Nov-29 09:04N 31°42' E 121°08'0 0.0
2016-Nov-29 08:31N 31°42' E 121°08'0 0.0
2016-Nov-29 07:29N 31°42' E 121°08'0 0.0
2016-Nov-29 06:31N 31°42' E 121°08'0 0.0
2016-Nov-29 05:25N 31°42' E 121°08'0 0.0
2016-Nov-29 04:31N 31°42' E 121°08'0 0.0
2016-Nov-29 01:31N 31°42' E 121°08'0 0.0
2016-Nov-29 00:31N 31°42' E 121°08'0 0.0
2016-Nov-28 22:31N 31°42' E 121°08'0 0.0
2016-Nov-28 21:19N 31°42' E 121°08'0 0.0
2016-Nov-28 20:31N 31°42' E 121°08'0 0.0
2016-Nov-28 19:31N 31°42' E 121°08'0 0.0
2016-Nov-28 18:31N 31°42' E 121°08'0 0.0
2016-Nov-28 17:29N 31°42' E 121°08'0 0.0
2016-Nov-28 16:31N 31°42' E 121°08'0 0.0
2016-Nov-28 15:25N 31°42' E 121°08'0 0.0
2016-Nov-28 14:23N 31°42' E 121°08'0 0.0
2016-Nov-28 13:25N 31°42' E 121°08'0 0.0
2016-Nov-28 12:31N 31°42' E 121°08'0 0.0
2016-Nov-28 11:31N 31°42' E 121°08'0 0.0
2016-Nov-28 10:31N 31°42' E 121°08'0 0.0
2016-Nov-28 09:31N 31°42' E 121°08'3 2.7
2016-Nov-28 08:33N 31°41' E 121°11'5 5.4
2016-Nov-28 07:34N 31°37' E 121°16'4 3.6
2016-Nov-28 06:31N 31°35' E 121°20'0 0.1
2016-Nov-28 05:31N 31°35' E 121°20'1 1.2
2016-Nov-28 04:33N 31°34' E 121°19'5 3.7
2016-Nov-28 03:15N 31°30' E 121°23'0 0.0
2016-Nov-28 01:27N 31°30' E 121°23'  
Track history (hours):
 
Tides and Currents Weather Stations Pressure Air Temp Water Temp Dewpoint Dewpoint Depression Visibility Wind Speed Wind Dir Waves Ship Positions

Transformer Ol

Last reported at 2016-Dec-08 00:23 UTC. Time now 2016-Dec-11 11:55 UTC.
Position N 01°55' E 102°19'.

Length 169 m; draft 9.9 m.

Type: Cargo ship. MMSI: 372789000.

Date/timePositionNaut miles runAvg speedWind from/ knotsBaromVisibWave heightAir tempDewpointWater temp
2016-Dec-08 00:23N 01°55' E 102°19'1113.4
2016-Dec-07 23:33N 01°50' E 102°29'1313.1
2016-Dec-07 22:33N 01°45' E 102°41'7512.0
2016-Dec-07 16:18N 01°10' E 103°48'7 9.1
2016-Dec-07 15:33N 01°14' E 103°54'2 1.6
2016-Dec-07 14:32N 01°15' E 103°53'0 0.1
2016-Dec-07 13:23N 01°15' E 103°53'0 0.0
2016-Dec-07 12:29N 01°15' E 103°53'0 0.1
2016-Dec-07 11:23N 01°15' E 103°53'0 0.1
2016-Dec-07 10:29N 01°15' E 103°53'0 0.0
2016-Dec-07 08:29N 01°15' E 103°53'0 0.1
2016-Dec-07 07:29N 01°15' E 103°53'0 0.1
2016-Dec-07 06:29N 01°15' E 103°53'0 0.0
2016-Dec-07 05:32N 01°15' E 103°53'0 0.0
2016-Dec-07 04:29N 01°15' E 103°53'0 0.1
2016-Dec-07 03:33N 01°15' E 103°53'3 2.8
2016-Dec-07 02:33N 01°14' E 103°55'4 4.3
2016-Dec-07 01:33N 01°15' E 103°60'  
2016-Nov-29 20:32N 31°16' E 121°52'1312.8
2016-Nov-29 19:33N 31°21' E 121°39'9 9.1
2016-Nov-29 18:34N 31°26' E 121°29'1010.1
2016-Nov-29 17:33N 31°32' E 121°20'10 9.9
2016-Nov-29 16:34N 31°40' E 121°12'4 3.5
2016-Nov-29 15:25N 31°42' E 121°08'0 0.0
2016-Nov-29 13:31N 31°42' E 121°08'0 0.0
2016-Nov-29 12:31N 31°42' E 121°08'0 0.0
2016-Nov-29 11:31N 31°42' E 121°08'0 0.0
2016-Nov-29 10:25N 31°42' E 121°08'0 0.0
2016-Nov-29 09:04N 31°42' E 121°08'0 0.0
2016-Nov-29 08:31N 31°42' E 121°08'0 0.0
2016-Nov-29 07:29N 31°42' E 121°08'0 0.0
2016-Nov-29 06:31N 31°42' E 121°08'0 0.0
2016-Nov-29 05:25N 31°42' E 121°08'0 0.0
2016-Nov-29 04:31N 31°42' E 121°08'0 0.0
2016-Nov-29 01:31N 31°42' E 121°08'0 0.0
2016-Nov-29 00:31N 31°42' E 121°08'0 0.0
2016-Nov-28 22:31N 31°42' E 121°08'0 0.0
2016-Nov-28 21:19N 31°42' E 121°08'0 0.0
2016-Nov-28 20:31N 31°42' E 121°08'0 0.0
2016-Nov-28 19:31N 31°42' E 121°08'0 0.0
2016-Nov-28 18:31N 31°42' E 121°08'0 0.0
2016-Nov-28 17:29N 31°42' E 121°08'0 0.0
2016-Nov-28 16:31N 31°42' E 121°08'0 0.0
2016-Nov-28 15:25N 31°42' E 121°08'0 0.0
2016-Nov-28 14:23N 31°42' E 121°08'0 0.0
2016-Nov-28 13:25N 31°42' E 121°08'0 0.0
2016-Nov-28 12:31N 31°42' E 121°08'0 0.0
2016-Nov-28 11:31N 31°42' E 121°08'0 0.0
2016-Nov-28 10:31N 31°42' E 121°08'0 0.0
2016-Nov-28 09:31N 31°42' E 121°08'3 2.7
2016-Nov-28 08:33N 31°41' E 121°11'5 5.4
2016-Nov-28 07:34N 31°37' E 121°16'4 3.6
2016-Nov-28 06:31N 31°35' E 121°20'0 0.1
2016-Nov-28 05:31N 31°35' E 121°20'1 1.2
2016-Nov-28 04:33N 31°34' E 121°19'5 3.7
2016-Nov-28 03:15N 31°30' E 121°23'0 0.0
2016-Nov-28 01:27N 31°30' E 121°23'  

Dump ship's entire track history